createdAt,value
2023-05-05T00:00:22.962Z,4.35
2023-05-05T00:03:26.348Z,3.80
2023-05-05T00:09:33.936Z,4.03
2023-05-05T00:12:36.522Z,3.35
2023-05-05T00:15:39.370Z,3.78
2023-05-05T00:18:42.014Z,3.83
2023-05-05T00:21:45.907Z,3.50
2023-05-05T00:24:48.415Z,3.47
2023-05-05T00:27:51.044Z,3.40
2023-05-05T00:30:53.610Z,4.07
2023-05-05T00:33:56.722Z,3.72
2023-05-05T00:37:00.598Z,3.88
2023-05-05T00:40:03.366Z,3.77
2023-05-05T00:43:06.101Z,3.65
2023-05-05T00:46:16.071Z,3.67
2023-05-05T00:49:18.757Z,3.77
2023-05-05T00:52:22.980Z,3.40
2023-05-05T00:55:26.133Z,3.83
2023-05-05T00:58:29.242Z,3.45
2023-05-05T01:01:31.866Z,3.88
2023-05-05T01:04:34.524Z,3.58
2023-05-05T01:07:45.825Z,3.42
2023-05-05T01:10:53.504Z,3.40
2023-05-05T01:14:03.620Z,3.53
2023-05-05T01:17:13.904Z,3.50
2023-05-05T01:20:22.154Z,3.40
2023-05-05T01:23:38.422Z,3.83
2023-05-05T01:26:53.837Z,3.10
2023-05-05T01:30:07.060Z,3.40
2023-05-05T01:33:12.720Z,3.00
2023-05-05T01:36:22.921Z,3.53
2023-05-05T01:39:29.612Z,3.50
2023-05-05T01:42:33.583Z,3.63
2023-05-05T01:45:39.403Z,3.50
2023-05-05T01:48:43.818Z,3.57
2023-05-05T01:51:47.449Z,3.60
2023-05-05T01:54:51.150Z,3.77
2023-05-05T01:57:54.302Z,3.57
2023-05-05T02:00:58.749Z,3.28
2023-05-05T02:04:03.086Z,3.53
2023-05-05T02:07:06.053Z,3.37
2023-05-05T02:10:09.558Z,3.03
2023-05-05T02:13:13.440Z,2.90
2023-05-05T02:16:16.463Z,3.57
2023-05-05T02:19:21.100Z,3.63
2023-05-05T02:22:23.653Z,3.63
2023-05-05T02:25:27.475Z,3.65
2023-05-05T02:28:35.014Z,3.37
2023-05-05T02:31:40.610Z,3.20
2023-05-05T02:34:47.409Z,3.87
2023-05-05T02:37:52.451Z,3.70
2023-05-05T02:40:56.323Z,3.30
2023-05-05T02:43:59.817Z,3.87
2023-05-05T02:50:09.663Z,3.88
2023-05-05T02:53:12.508Z,4.10
2023-05-05T02:56:22.249Z,3.70
2023-05-05T02:59:32.438Z,3.67
2023-05-05T03:02:42.664Z,3.67
2023-05-05T03:05:51.392Z,4.10
2023-05-05T03:08:57.695Z,4.27
2023-05-05T03:12:02.260Z,3.13
2023-05-05T03:15:06.214Z,4.10
2023-05-05T03:18:10.521Z,4.70
2023-05-05T03:21:14.637Z,4.03
2023-05-05T03:24:18.539Z,3.90
2023-05-05T03:27:21.402Z,3.90
2023-05-05T03:30:24.439Z,3.92
2023-05-05T03:33:26.994Z,3.72
2023-05-05T03:36:31.859Z,4.10
2023-05-05T03:39:34.449Z,3.93
2023-05-05T03:42:37.064Z,4.90
2023-05-05T03:45:39.650Z,4.18
2023-05-05T03:48:42.824Z,4.57
2023-05-05T03:51:47.229Z,4.60
2023-05-05T03:54:50.969Z,4.60
2023-05-05T03:57:53.513Z,4.03
2023-05-05T04:00:56.693Z,5.70
2023-05-05T04:03:59.381Z,4.82
2023-05-05T04:07:03.880Z,6.00
2023-05-05T04:10:08.108Z,4.80
2023-05-05T04:13:10.958Z,4.53
2023-05-05T04:16:13.880Z,5.13
2023-05-05T04:19:16.626Z,5.18
2023-05-05T04:22:20.510Z,5.20
2023-05-05T04:25:23.190Z,5.27
2023-05-05T04:28:25.914Z,5.00
2023-05-05T04:31:29.108Z,5.40
2023-05-05T04:37:35.726Z,5.37
2023-05-05T04:40:40.128Z,4.90
2023-05-05T04:43:42.687Z,5.17
2023-05-05T04:46:45.538Z,4.55
2023-05-05T04:49:48.188Z,5.20
2023-05-05T04:52:52.800Z,5.43
2023-05-05T04:55:55.492Z,5.20
2023-05-05T04:58:58.025Z,5.07
2023-05-05T05:02:00.554Z,5.00
2023-05-05T05:05:03.313Z,4.60
2023-05-05T05:08:07.539Z,5.60
2023-05-05T05:11:10.052Z,5.13
2023-05-05T05:14:12.605Z,4.55
2023-05-05T05:17:15.168Z,4.60
2023-05-05T05:20:17.658Z,4.43
2023-05-05T05:23:21.668Z,5.05
2023-05-05T05:26:24.225Z,4.70
2023-05-05T05:29:27.058Z,5.00
2023-05-05T05:32:29.807Z,4.97
2023-05-05T05:35:32.529Z,4.50
2023-05-05T05:38:36.751Z,4.93
2023-05-05T05:41:39.230Z,4.97
2023-05-05T05:44:41.996Z,4.50
2023-05-05T05:47:44.505Z,4.80
2023-05-05T05:50:47.168Z,4.72
2023-05-05T05:53:51.844Z,4.25
2023-05-05T05:56:54.450Z,5.00
2023-05-05T05:59:59.219Z,5.32
2023-05-05T06:03:03.136Z,5.20
2023-05-05T06:06:05.982Z,5.13
2023-05-05T06:09:09.906Z,4.80
2023-05-05T06:12:12.442Z,4.47
2023-05-05T06:15:15.275Z,4.60
2023-05-05T06:18:18.043Z,4.50
2023-05-05T06:21:20.899Z,4.72
2023-05-05T06:24:25.087Z,5.13
2023-05-05T06:27:27.847Z,4.60
2023-05-05T06:30:30.524Z,4.07
2023-05-05T06:33:33.329Z,4.53
2023-05-05T06:36:35.986Z,3.70
2023-05-05T06:39:40.061Z,3.92
2023-05-05T06:42:42.628Z,4.00
2023-05-05T06:45:46.116Z,4.50
2023-05-05T06:48:48.676Z,4.50
2023-05-05T06:51:51.487Z,3.75
2023-05-05T06:54:55.640Z,4.25
2023-05-05T06:57:58.312Z,4.13
2023-05-05T07:01:00.873Z,4.00
2023-05-05T07:04:03.536Z,3.95
2023-05-05T07:07:06.521Z,3.00
2023-05-05T07:10:11.051Z,3.22
2023-05-05T07:13:13.848Z,3.40
2023-05-05T07:16:16.619Z,3.30
2023-05-05T07:19:19.190Z,3.67
2023-05-05T07:22:21.712Z,4.32
2023-05-05T07:25:25.813Z,3.35
2023-05-05T07:28:28.542Z,3.60
2023-05-05T07:31:31.346Z,3.63
2023-05-05T07:34:34.891Z,3.50
2023-05-05T07:37:37.660Z,3.50
2023-05-05T07:40:42.095Z,4.30
2023-05-05T07:43:44.865Z,3.40
2023-05-05T07:46:47.675Z,3.72
2023-05-05T07:49:50.488Z,3.25
2023-05-05T07:52:59.262Z,3.10
2023-05-05T07:56:14.437Z,3.67
2023-05-05T07:59:16.959Z,2.20
2023-05-05T08:02:20.046Z,1.55
2023-05-05T08:08:26.910Z,1.27
2023-05-05T08:11:31.057Z,1.67
2023-05-05T08:14:33.942Z,1.73
2023-05-05T08:17:50.294Z,1.80
2023-05-05T08:20:53.464Z,2.07
2023-05-05T08:23:56.165Z,1.40
2023-05-05T08:27:00.129Z,1.70
2023-05-05T08:30:03.968Z,1.63
2023-05-05T08:33:06.930Z,1.77
2023-05-05T08:36:09.882Z,1.92
2023-05-05T08:39:12.506Z,1.90
2023-05-05T08:42:28.983Z,1.67
2023-05-05T08:45:36.091Z,1.60
2023-05-05T08:48:41.424Z,1.67
2023-05-05T08:51:45.356Z,1.30
2023-05-05T08:54:52.465Z,1.20
2023-05-05T08:57:58.460Z,1.03
2023-05-05T09:01:01.744Z,1.57
2023-05-05T09:04:05.101Z,1.40
2023-05-05T09:07:08.593Z,1.33
2023-05-05T09:10:12.761Z,1.77
2023-05-05T09:13:17.047Z,1.60
2023-05-05T09:16:20.074Z,1.57
2023-05-05T09:19:23.201Z,1.52
2023-05-05T09:25:36.795Z,1.47
2023-05-05T09:28:52.981Z,1.70
2023-05-05T09:32:05.877Z,1.30
2023-05-05T09:35:09.716Z,1.45
2023-05-05T09:38:12.925Z,1.90
2023-05-05T09:44:34.705Z,1.35
2023-05-05T09:47:37.773Z,1.40
2023-05-05T09:50:44.579Z,1.33
2023-05-05T09:53:47.266Z,1.27
2023-05-05T09:56:50.880Z,1.30
2023-05-05T09:59:59.182Z,1.43
2023-05-05T10:03:04.296Z,0.95
2023-05-05T10:06:07.915Z,3.13
2023-05-05T10:09:10.803Z,1.60
2023-05-05T10:12:13.843Z,1.40
2023-05-05T10:15:18.343Z,1.30
2023-05-05T10:18:23.239Z,1.27
2023-05-05T10:21:26.471Z,1.33
2023-05-05T10:24:36.220Z,1.30
2023-05-05T10:27:44.414Z,1.23
2023-05-05T10:30:50.368Z,2.08
2023-05-05T10:33:55.841Z,1.50
2023-05-05T10:37:00.432Z,1.30
2023-05-05T10:40:03.713Z,1.40
2023-05-05T10:43:07.540Z,0.90
2023-05-05T10:46:13.138Z,1.50
2023-05-05T10:49:23.107Z,1.30
2023-05-05T10:52:30.169Z,1.07
2023-05-05T10:55:37.858Z,1.93
2023-05-05T10:58:58.452Z,1.20
2023-05-05T11:02:19.584Z,1.33
2023-05-05T11:05:22.542Z,1.20
2023-05-05T11:12:03.861Z,1.00
2023-05-05T11:15:37.392Z,1.20
2023-05-05T11:18:44.507Z,1.50
2023-05-05T11:22:01.226Z,1.50
2023-05-05T11:25:48.097Z,1.33
2023-05-05T11:29:04.714Z,1.00
2023-05-05T11:32:14.166Z,1.02
2023-05-05T11:35:18.872Z,1.40
2023-05-05T11:38:25.381Z,1.00
2023-05-05T11:41:39.361Z,0.98
2023-05-05T11:44:42.486Z,1.10
2023-05-05T11:47:45.482Z,1.10
2023-05-05T11:50:49.609Z,1.15
2023-05-05T11:53:52.613Z,1.90
2023-05-05T11:56:56.607Z,1.30
2023-05-05T12:00:01.813Z,1.15
2023-05-05T12:03:05.198Z,1.40
2023-05-05T12:06:09.827Z,1.83
2023-05-05T12:09:16.601Z,1.58
2023-05-05T12:12:20.200Z,1.20
2023-05-05T12:15:30.060Z,1.10
2023-05-05T12:18:32.543Z,1.70
2023-05-05T12:24:39.452Z,1.45
2023-05-05T12:27:42.857Z,1.30
2023-05-05T12:30:57.384Z,1.48
2023-05-05T12:34:00.019Z,1.17
2023-05-05T12:40:08.761Z,0.93
2023-05-05T12:43:11.889Z,1.58
2023-05-05T12:46:15.159Z,1.10
2023-05-05T12:49:18.099Z,1.45
2023-05-05T12:52:22.688Z,1.45
2023-05-05T12:55:37.075Z,1.60
2023-05-05T12:58:49.279Z,1.20
2023-05-05T13:01:53.081Z,1.30
2023-05-05T13:04:56.259Z,1.10
2023-05-05T13:08:00.770Z,1.40
2023-05-05T13:11:03.401Z,1.20
2023-05-05T13:14:07.699Z,1.42
2023-05-05T13:17:11.218Z,1.40
2023-05-05T13:20:14.084Z,1.30
2023-05-05T13:23:19.407Z,1.00
2023-05-05T13:26:22.460Z,1.20
2023-05-05T13:29:29.508Z,1.35
2023-05-05T13:32:33.985Z,1.17
2023-05-05T13:35:36.561Z,1.88
2023-05-05T13:38:41.100Z,1.30
2023-05-05T13:41:44.746Z,0.95
2023-05-05T13:44:47.634Z,1.38
2023-05-05T13:47:51.060Z,1.20
2023-05-05T13:50:53.920Z,1.13
2023-05-05T13:53:57.935Z,1.23
2023-05-05T13:57:00.570Z,0.93
2023-05-05T14:00:04.404Z,1.05
2023-05-05T14:03:07.274Z,1.30
2023-05-05T14:06:10.665Z,1.55
2023-05-05T14:09:14.882Z,1.30
2023-05-05T14:12:17.443Z,1.27
2023-05-05T14:15:20.473Z,1.05
2023-05-05T14:18:23.406Z,1.42
2023-05-05T14:21:26.053Z,1.15
2023-05-05T14:24:30.252Z,1.40
2023-05-05T14:27:32.947Z,1.40
2023-05-05T14:30:35.962Z,1.10
2023-05-05T14:33:38.701Z,1.88
2023-05-05T14:39:45.104Z,2.25
2023-05-05T14:42:49.172Z,1.30
2023-05-05T14:45:52.710Z,1.20
2023-05-05T14:48:55.601Z,1.48
2023-05-05T14:51:58.893Z,1.67
2023-05-05T14:55:03.026Z,1.30
2023-05-05T14:58:05.677Z,1.20
2023-05-05T15:01:08.505Z,1.48
2023-05-05T15:07:13.688Z,1.30
2023-05-05T15:10:21.166Z,1.45
2023-05-05T15:13:24.632Z,1.10
2023-05-05T15:16:27.802Z,1.60
2023-05-05T15:19:30.855Z,1.33
2023-05-05T15:25:37.494Z,1.55
2023-05-05T15:28:40.206Z,1.40
2023-05-05T15:31:43.495Z,1.60
2023-05-05T15:34:47.643Z,1.33
2023-05-05T15:37:51.659Z,1.50
2023-05-05T15:40:55.903Z,1.17
2023-05-05T15:43:58.624Z,1.40
2023-05-05T15:47:01.516Z,1.63
2023-05-05T15:53:06.876Z,1.85
2023-05-05T15:56:11.856Z,1.50
2023-05-05T15:59:14.512Z,1.87
2023-05-05T16:02:17.059Z,2.35
2023-05-05T16:05:22.233Z,1.77
2023-05-05T16:08:25.672Z,2.03
2023-05-05T16:11:29.661Z,2.00
2023-05-05T16:14:32.729Z,2.20
2023-05-05T16:20:37.795Z,2.13
2023-05-05T16:23:40.799Z,2.05
2023-05-05T16:26:44.914Z,2.58
2023-05-05T16:29:47.669Z,2.93
2023-05-05T16:32:51.969Z,2.60
2023-05-05T16:35:54.730Z,3.40
2023-05-05T16:38:57.355Z,2.83
2023-05-05T16:42:02.739Z,3.47
2023-05-05T16:45:06.975Z,2.70
2023-05-05T16:48:09.874Z,3.20
2023-05-05T16:51:12.714Z,3.25
2023-05-05T16:54:15.219Z,3.95
2023-05-05T16:57:19.350Z,3.40
2023-05-05T17:00:22.069Z,3.60
2023-05-05T17:03:24.705Z,3.65
2023-05-05T17:06:27.645Z,3.35
2023-05-05T17:09:30.356Z,2.80
2023-05-05T17:12:34.425Z,2.45
2023-05-05T17:15:37.451Z,3.20
2023-05-05T17:18:40.000Z,2.95
2023-05-05T17:21:43.121Z,2.40
2023-05-05T17:24:45.606Z,2.63
2023-05-05T17:27:49.784Z,3.15
2023-05-05T17:30:52.433Z,3.20
2023-05-05T17:33:54.881Z,2.17
2023-05-05T17:36:58.198Z,2.53
2023-05-05T17:40:00.708Z,2.00
2023-05-05T17:43:04.599Z,1.73
2023-05-05T17:46:07.363Z,1.60
2023-05-05T17:49:10.033Z,1.75
2023-05-05T17:52:12.619Z,2.17
2023-05-05T17:55:15.323Z,2.08
2023-05-05T17:58:19.600Z,1.98
2023-05-05T18:01:22.508Z,2.07
2023-05-05T18:04:25.395Z,2.05
2023-05-05T18:07:28.605Z,2.15
2023-05-05T18:10:31.861Z,2.00
2023-05-05T18:13:35.935Z,1.83
2023-05-05T18:16:38.768Z,1.70
2023-05-05T18:19:46.590Z,1.58
2023-05-05T18:22:52.280Z,1.70
2023-05-05T18:25:55.305Z,1.80
2023-05-05T18:28:59.232Z,1.70
2023-05-05T18:32:01.893Z,2.13
2023-05-05T18:35:04.893Z,2.17
2023-05-05T18:38:07.742Z,2.10
2023-05-05T18:41:10.851Z,3.00
2023-05-05T18:44:14.824Z,2.17
2023-05-05T18:47:17.391Z,2.20
2023-05-05T18:50:20.141Z,2.55
2023-05-05T18:53:22.774Z,2.50
2023-05-05T18:56:25.411Z,2.88
2023-05-05T18:59:29.378Z,2.40
2023-05-05T19:02:32.274Z,1.80
2023-05-05T19:05:34.952Z,1.92
2023-05-05T19:08:37.599Z,1.88
2023-05-05T19:11:41.832Z,2.20
2023-05-05T19:14:46.055Z,1.97
2023-05-05T19:17:48.915Z,2.07
2023-05-05T19:20:51.592Z,2.50
2023-05-05T19:23:54.156Z,2.83
2023-05-05T19:26:56.939Z,2.50
2023-05-05T19:30:01.062Z,2.60
2023-05-05T19:33:03.682Z,2.67
2023-05-05T19:36:06.548Z,2.17
2023-05-05T19:39:09.105Z,2.63
2023-05-05T19:42:11.599Z,2.15
2023-05-05T19:45:16.289Z,3.15
2023-05-05T19:48:19.258Z,2.87
2023-05-05T19:51:22.027Z,2.72
2023-05-05T19:54:25.273Z,2.50
2023-05-05T19:57:28.348Z,2.75
2023-05-05T20:00:32.249Z,2.75
2023-05-05T20:03:34.921Z,3.23
2023-05-05T20:06:37.594Z,2.90
2023-05-05T20:09:40.176Z,3.20
2023-05-05T20:12:48.147Z,2.75
2023-05-05T20:15:52.598Z,2.73
2023-05-05T20:18:55.649Z,2.27
2023-05-05T20:21:58.194Z,2.53
2023-05-05T20:25:00.778Z,2.38
2023-05-05T20:28:03.389Z,2.90
2023-05-05T20:31:07.615Z,3.28
2023-05-05T20:34:10.290Z,2.87
2023-05-05T20:37:13.881Z,2.90
2023-05-05T20:40:16.731Z,2.77
2023-05-05T20:43:19.510Z,2.42
2023-05-05T20:46:23.386Z,2.53
2023-05-05T20:49:26.181Z,3.13
2023-05-05T20:52:28.876Z,2.45
2023-05-05T20:55:31.592Z,2.42
2023-05-05T20:58:34.254Z,2.30
2023-05-05T21:01:38.123Z,2.70
2023-05-05T21:04:40.799Z,2.80
2023-05-05T21:07:44.617Z,2.58
2023-05-05T21:10:47.218Z,2.07
2023-05-05T21:13:49.894Z,2.72
2023-05-05T21:16:53.900Z,2.58
2023-05-05T21:19:56.933Z,2.60
2023-05-05T21:22:59.524Z,2.63
2023-05-05T21:26:03.359Z,3.22
2023-05-05T21:29:06.596Z,2.93
2023-05-05T21:32:12.425Z,2.80
2023-05-05T21:35:15.144Z,3.40
2023-05-05T21:38:17.602Z,2.67
2023-05-05T21:41:20.131Z,2.72
2023-05-05T21:44:22.897Z,3.17
2023-05-05T21:47:26.943Z,2.70
2023-05-05T21:50:29.677Z,2.57
2023-05-05T21:53:32.322Z,2.55
2023-05-05T21:56:35.039Z,2.58
2023-05-05T21:59:37.728Z,2.35
2023-05-05T22:02:41.672Z,2.88
2023-05-05T22:05:44.593Z,3.03
2023-05-05T22:08:47.782Z,2.40
2023-05-05T22:11:50.412Z,2.60
2023-05-05T22:14:52.947Z,2.20
2023-05-05T22:17:57.016Z,2.50
2023-05-05T22:20:59.698Z,2.33
2023-05-05T22:24:02.272Z,1.80
2023-05-05T22:27:05.048Z,2.15
2023-05-05T22:30:09.159Z,1.90
2023-05-05T22:33:13.160Z,2.00
2023-05-05T22:36:15.951Z,2.07
2023-05-05T22:39:19.759Z,2.53
2023-05-05T22:42:22.441Z,1.97
2023-05-05T22:45:25.271Z,1.92
2023-05-05T22:48:29.178Z,1.98
2023-05-05T22:51:31.823Z,1.90
2023-05-05T22:54:34.541Z,2.38
2023-05-05T22:57:37.492Z,2.03
2023-05-05T23:00:40.126Z,1.88
2023-05-05T23:03:44.195Z,2.00
2023-05-05T23:06:47.066Z,2.20
2023-05-05T23:09:49.743Z,1.85
2023-05-05T23:12:52.937Z,2.20
2023-05-05T23:15:55.693Z,2.25
2023-05-05T23:18:59.730Z,1.90
2023-05-05T23:22:02.786Z,2.00
2023-05-05T23:25:05.704Z,2.00
2023-05-05T23:28:08.322Z,2.58
2023-05-05T23:31:10.989Z,1.85
2023-05-05T23:34:14.947Z,2.13
2023-05-05T23:37:17.490Z,2.63
2023-05-05T23:40:20.286Z,3.00
2023-05-05T23:43:22.879Z,2.45
2023-05-05T23:46:25.657Z,2.50
2023-05-05T23:49:29.524Z,2.40
2023-05-05T23:52:32.371Z,2.30
2023-05-05T23:55:35.084Z,2.67
2023-05-05T23:58:37.686Z,2.72
